Hovedside
METAR-TAF:

METAR-TAF

Lufthavner :

Chengdu Shuangliu internasjonale lufthavn

Chengdu, Kina

breddegrad: 30-40N, lengdegrad: 104-01E, høyde over havet: 508 m

Gjeldene værobservasjon

Denne rapporten ble laget for 18 minutter siden, klokken 04:00 UTC
Flau vind
Temperatur 18°C
Luftfuktighet 83%
Trykk 1017 hPa
Sikt: 5000 m
Spredte skyer i en høyde av 1300 ft
Spredte skyer i en høyde av 3300 ft
dis

METAR: ZUUU 240400Z 00000MPS 5000 BR SCT013 SCT033 18/15 Q1017 NOSIG

Tid: 12:18 (04:18 UTC)

Varsel

Denne rapporten ble laget for 8 timer og 16 minutter siden, klokken 20:02 UTC
Varsel gyldig fra 24. klokken 00 UTC til 24. klokken 24 UTC
Vind 6 kt fra Nord-nordøst
Sikt: 5000 m
Spredte skyer i en høyde av 5000 ft
dis
Midlertidig
fra 24. klokken 18 UTC til 24. klokken 24 UTC
lett regn

TAF: ZUUU 232002Z 2400/2424 02003MPS 5000 BR SCT050 TX20/2407Z TN16/2400Z TEMPO 2418/2424 -RA

Værobservasjoner og værvarsel for over 4000 flyplasser (METAR- og TAF-rapporter).

Tilgjengelige stasjoner er representert av de røde og gule prikkene på kartet.

Hold musepekeren over prikken for å se navnet på stasjonen.

Klikk så for å se værobservasjoner og -varsler.

For å forandre kartet kan du klikke på den grønne knappen med svart kryss for å zoome inn, på den grønne knappen med strek for å zoome ut, eller på de grønne pilene for å se tilstøtende kart.


METAR-TAF: